createdAt,value
2018-09-05T00:01:24.389Z,36.28
2018-09-05T00:03:57.803Z,36.15
2018-09-05T00:06:31.286Z,36.15
2018-09-05T00:09:07.064Z,35.75
2018-09-05T00:11:40.533Z,36.63
2018-09-05T00:14:14.064Z,36.03
2018-09-05T00:16:47.467Z,36.45
2018-09-05T00:19:20.868Z,35.80
2018-09-05T00:21:54.290Z,36.45
2018-09-05T00:24:27.703Z,36.30
2018-09-05T00:27:01.151Z,36.28
2018-09-05T00:29:34.683Z,35.13
2018-09-05T00:32:08.156Z,36.28
2018-09-05T00:34:41.611Z,35.35
2018-09-05T00:37:15.064Z,36.40
2018-09-05T00:39:48.494Z,36.28
2018-09-05T00:42:21.938Z,36.20
2018-09-05T00:44:55.338Z,36.28
2018-09-05T00:47:28.771Z,35.85
2018-09-05T00:50:02.197Z,37.88
2018-09-05T00:52:35.634Z,35.17
2018-09-05T00:55:10.152Z,35.28
2018-09-05T00:57:44.759Z,35.60
2018-09-05T01:00:18.183Z,35.70
2018-09-05T01:02:51.574Z,36.13
2018-09-05T01:05:24.962Z,35.45
2018-09-05T01:07:58.434Z,36.28
2018-09-05T01:10:31.833Z,36.30
2018-09-05T01:13:05.248Z,36.35
2018-09-05T01:15:39.859Z,35.83
2018-09-05T01:18:13.254Z,35.55
2018-09-05T01:20:46.738Z,36.53
2018-09-05T01:23:20.138Z,36.15
2018-09-05T01:25:53.531Z,35.20
2018-09-05T01:28:26.930Z,35.92
2018-09-05T01:31:00.457Z,35.52
2018-09-05T01:33:35.094Z,35.80
2018-09-05T01:36:13.902Z,35.55
2018-09-05T01:38:47.347Z,35.00
2018-09-05T01:41:20.810Z,35.55
2018-09-05T01:43:55.326Z,36.55
2018-09-05T01:46:28.767Z,36.30
2018-09-05T01:49:02.223Z,35.78
2018-09-05T01:51:35.662Z,35.48
2018-09-05T01:54:09.123Z,35.92
2018-09-05T01:56:42.558Z,36.08
2018-09-05T01:59:16.010Z,35.85
2018-09-05T02:01:49.898Z,36.00
2018-09-05T02:04:23.402Z,36.17
2018-09-05T02:06:56.892Z,36.63
2018-09-05T02:09:30.367Z,35.68
2018-09-05T02:12:03.934Z,35.83
2018-09-05T02:14:37.391Z,36.25
2018-09-05T02:17:10.839Z,37.25
2018-09-05T02:19:44.362Z,36.17
2018-09-05T02:22:17.790Z,36.58
2018-09-05T02:24:51.252Z,35.52
2018-09-05T02:27:24.706Z,36.65
2018-09-05T02:29:58.198Z,35.92
2018-09-05T02:32:31.647Z,35.45
2018-09-05T02:35:05.463Z,36.48
2018-09-05T02:37:40.030Z,36.93
2018-09-05T02:40:13.634Z,36.25
2018-09-05T02:42:47.048Z,38.23
2018-09-05T02:45:20.487Z,37.28
2018-09-05T02:47:53.898Z,36.83
2018-09-05T02:50:27.349Z,35.68
2018-09-05T02:53:01.807Z,36.75
2018-09-05T02:55:40.452Z,36.00
2018-09-05T02:58:13.859Z,36.53
2018-09-05T03:00:47.331Z,35.90
2018-09-05T03:03:20.762Z,35.75
2018-09-05T03:05:54.366Z,36.70
2018-09-05T03:08:27.783Z,36.80
2018-09-05T03:11:01.220Z,38.05
2018-09-05T03:13:34.686Z,37.63
2018-09-05T03:16:08.126Z,37.58
2018-09-05T03:18:41.547Z,36.50
2018-09-05T03:21:14.987Z,37.00
2018-09-05T03:23:48.395Z,37.05
2018-09-05T03:26:21.835Z,36.08
2018-09-05T03:28:55.239Z,36.33
2018-09-05T03:31:28.711Z,36.98
2018-09-05T03:34:02.263Z,37.83
2018-09-05T03:36:35.866Z,37.20
2018-09-05T03:39:10.587Z,36.75
2018-09-05T03:41:44.031Z,38.95
2018-09-05T03:44:17.635Z,38.17
2018-09-05T03:46:51.115Z,37.63
2018-09-05T03:49:24.513Z,37.53
2018-09-05T03:51:57.929Z,37.10
2018-09-05T03:54:31.324Z,36.30
2018-09-05T03:57:04.848Z,37.28
2018-09-05T03:59:38.239Z,37.80
2018-09-05T04:02:11.644Z,38.45
2018-09-05T04:04:45.043Z,37.42
2018-09-05T04:07:19.525Z,37.95
2018-09-05T04:09:52.906Z,38.90
2018-09-05T04:12:26.763Z,38.17
2018-09-05T04:15:00.146Z,37.88
2018-09-05T04:17:33.562Z,38.25
2018-09-05T04:20:07.670Z,39.08
2018-09-05T04:22:41.099Z,37.38
2018-09-05T04:25:14.546Z,39.03
2018-09-05T04:27:47.992Z,38.67
2018-09-05T04:30:21.487Z,38.02
2018-09-05T04:32:54.951Z,37.53
2018-09-05T04:35:28.415Z,36.73
2018-09-05T04:38:01.842Z,38.05
2018-09-05T04:40:35.270Z,38.83
2018-09-05T04:43:08.763Z,38.53
2018-09-05T04:45:42.178Z,37.98
2018-09-05T04:48:15.641Z,37.00
2018-09-05T04:50:49.072Z,37.95
2018-09-05T04:53:22.739Z,37.95
2018-09-05T04:55:56.164Z,37.48
2018-09-05T04:58:29.633Z,38.35
2018-09-05T05:01:04.168Z,37.33
2018-09-05T05:03:37.719Z,38.00
2018-09-05T05:06:11.161Z,37.93
2018-09-05T05:08:44.586Z,38.70
2018-09-05T05:11:18.030Z,38.70
2018-09-05T05:13:51.485Z,39.15
2018-09-05T05:16:24.942Z,37.70
2018-09-05T05:18:58.347Z,39.48
2018-09-05T05:21:31.823Z,38.85
2018-09-05T05:24:05.262Z,38.65
2018-09-05T05:26:38.705Z,38.63
2018-09-05T05:29:12.191Z,39.90
2018-09-05T05:31:45.687Z,39.40
2018-09-05T05:34:19.468Z,37.65
2018-09-05T05:36:52.931Z,37.55
2018-09-05T05:39:26.431Z,38.55
2018-09-05T05:41:59.872Z,38.42
2018-09-05T05:44:33.315Z,39.45
2018-09-05T05:47:06.771Z,39.15
2018-09-05T05:49:40.223Z,39.45
2018-09-05T05:52:13.682Z,39.10
2018-09-05T05:54:47.075Z,39.48
2018-09-05T05:57:20.503Z,38.70
2018-09-05T05:59:53.888Z,38.28
2018-09-05T06:02:27.285Z,39.13
2018-09-05T06:05:00.695Z,37.65
2018-09-05T06:07:34.110Z,39.70
2018-09-05T06:10:07.556Z,38.53
2018-09-05T06:12:40.963Z,39.13
2018-09-05T06:15:14.350Z,39.48
2018-09-05T06:17:47.785Z,39.20
2018-09-05T06:20:21.243Z,41.18
2018-09-05T06:22:54.644Z,40.00
2018-09-05T06:25:28.047Z,39.30
2018-09-05T06:28:01.460Z,39.58
2018-09-05T06:30:35.100Z,39.38
2018-09-05T06:33:08.513Z,40.10
2018-09-05T06:35:41.952Z,40.75
2018-09-05T06:38:20.278Z,40.63
2018-09-05T06:40:54.019Z,39.98
2018-09-05T06:43:27.435Z,40.58
2018-09-05T06:46:00.863Z,40.65
2018-09-05T06:48:34.303Z,39.63
2018-09-05T06:51:08.437Z,39.18
2018-09-05T06:53:41.859Z,39.98
2018-09-05T06:56:15.248Z,40.40
2018-09-05T06:58:48.673Z,40.12
2018-09-05T07:01:22.130Z,39.35
2018-09-05T07:03:55.566Z,40.00
2018-09-05T07:06:28.959Z,39.10
2018-09-05T07:09:02.392Z,40.23
2018-09-05T07:11:35.828Z,39.88
2018-09-05T07:14:09.368Z,40.08
2018-09-05T07:16:42.704Z,39.65
2018-09-05T07:19:16.141Z,39.88
2018-09-05T07:21:49.545Z,41.23
2018-09-05T07:24:22.975Z,40.12
2018-09-05T07:26:56.359Z,41.42
2018-09-05T07:29:29.767Z,38.80
2018-09-05T07:32:03.160Z,40.48
2018-09-05T07:34:36.567Z,40.75
2018-09-05T07:37:09.976Z,41.25
2018-09-05T07:39:43.408Z,40.35
2018-09-05T07:42:17.830Z,40.95
2018-09-05T07:44:51.268Z,41.95
2018-09-05T07:47:24.954Z,41.10
2018-09-05T07:49:58.377Z,40.98
2018-09-05T07:52:31.811Z,40.83
2018-09-05T07:55:05.340Z,40.38
2018-09-05T07:57:38.738Z,40.78
2018-09-05T08:00:12.239Z,40.83
2018-09-05T08:02:45.661Z,42.15
2018-09-05T08:05:19.067Z,40.30
2018-09-05T08:07:52.503Z,40.43
2018-09-05T08:10:25.908Z,40.40
2018-09-05T08:12:59.309Z,41.08
2018-09-05T08:15:32.728Z,40.48
2018-09-05T08:18:06.216Z,40.52
2018-09-05T08:20:39.610Z,41.13
2018-09-05T08:23:13.261Z,39.05
2018-09-05T08:25:46.685Z,40.38
2018-09-05T08:28:20.136Z,41.68
2018-09-05T08:30:53.552Z,41.18
2018-09-05T08:33:26.934Z,40.38
2018-09-05T08:36:00.705Z,40.85
2018-09-05T08:38:33.960Z,40.95
2018-09-05T08:41:08.739Z,41.28
2018-09-05T08:43:42.287Z,41.25
2018-09-05T08:46:15.591Z,41.88
2018-09-05T08:48:48.979Z,41.70
2018-09-05T09:15:47.271Z,41.25
2018-09-05T09:18:21.751Z,40.33
2018-09-05T09:20:55.139Z,41.50
2018-09-05T09:23:28.557Z,40.55
2018-09-05T09:26:02.006Z,40.70
2018-09-05T09:28:35.448Z,41.58
2018-09-05T09:31:08.872Z,40.73
2018-09-05T09:33:42.274Z,40.85
2018-09-05T09:36:15.690Z,41.18
2018-09-05T09:38:49.843Z,39.83
2018-09-05T09:41:23.252Z,42.20
2018-09-05T09:43:56.669Z,41.10
2018-09-05T09:46:30.061Z,41.65
2018-09-05T09:49:03.526Z,41.75
2018-09-05T09:51:36.931Z,41.70
2018-09-05T09:54:10.352Z,42.15
2018-09-05T09:56:43.771Z,41.33
2018-09-05T09:59:17.161Z,41.00
2018-09-05T10:01:55.774Z,40.30
2018-09-05T10:04:37.618Z,40.43
2018-09-05T10:07:16.276Z,40.95
2018-09-05T10:09:53.879Z,41.33
2018-09-05T10:12:32.491Z,41.48
2018-09-05T10:15:12.558Z,40.55
2018-09-05T10:17:50.212Z,40.12
2018-09-05T10:20:23.603Z,39.98
2018-09-05T10:22:57.019Z,40.33
2018-09-05T10:25:30.451Z,39.98
2018-09-05T10:28:03.879Z,40.75
2018-09-05T10:30:37.282Z,40.23
2018-09-05T10:33:10.703Z,40.38
2018-09-05T10:35:44.122Z,40.17
2018-09-05T10:38:17.532Z,41.05
2018-09-05T10:40:50.939Z,40.70
2018-09-05T10:43:24.355Z,40.52
2018-09-05T10:45:57.755Z,41.18
2018-09-05T10:48:31.204Z,42.17
2018-09-05T10:51:04.806Z,40.67
2018-09-05T10:53:38.215Z,41.05
2018-09-05T10:56:11.598Z,40.92
2018-09-05T10:58:45.155Z,40.88
2018-09-05T11:01:18.592Z,41.88
2018-09-05T11:03:53.032Z,41.85
2018-09-05T11:06:26.635Z,42.03
2018-09-05T11:09:00.128Z,41.90
2018-09-05T11:11:33.528Z,41.25
2018-09-05T11:14:07.356Z,41.70
2018-09-05T11:16:41.091Z,42.20
2018-09-05T11:19:16.612Z,41.80
2018-09-05T11:21:50.012Z,41.77
2018-09-05T11:24:23.442Z,41.58
2018-09-05T11:26:56.827Z,41.58
2018-09-05T11:29:31.746Z,41.98
2018-09-05T11:32:05.139Z,41.53
2018-09-05T11:34:40.255Z,41.77
2018-09-05T11:37:13.659Z,42.85
2018-09-05T11:39:48.838Z,42.33
2018-09-05T11:42:22.227Z,42.25
2018-09-05T11:44:56.414Z,41.05
2018-09-05T11:47:29.868Z,41.50
2018-09-05T11:50:03.440Z,41.85
2018-09-05T11:52:37.938Z,41.83
2018-09-05T11:55:11.359Z,41.55
2018-09-05T11:57:44.791Z,42.58
2018-09-05T12:00:18.222Z,43.20
2018-09-05T12:02:51.604Z,42.50
2018-09-05T12:05:25.011Z,42.25
2018-09-05T12:07:59.513Z,42.70
2018-09-05T12:10:32.930Z,41.92
2018-09-05T12:13:06.319Z,43.15
2018-09-05T12:15:39.731Z,44.08
2018-09-05T12:18:13.122Z,43.05
2018-09-05T12:20:47.639Z,42.62
2018-09-05T12:23:21.034Z,42.30
2018-09-05T12:25:54.482Z,41.95
2018-09-05T12:28:28.983Z,42.58
2018-09-05T12:31:02.403Z,41.68
2018-09-05T12:33:35.802Z,43.10
2018-09-05T12:36:09.330Z,42.70
2018-09-05T12:38:42.718Z,43.55
2018-09-05T12:41:17.164Z,41.90
2018-09-05T12:43:50.571Z,43.30
2018-09-05T12:46:23.991Z,42.40
2018-09-05T12:48:57.386Z,43.00
2018-09-05T12:51:31.008Z,42.40
2018-09-05T12:54:04.831Z,43.52
2018-09-05T12:56:38.259Z,43.38
2018-09-05T12:59:11.745Z,43.42
2018-09-05T13:01:45.153Z,42.45
2018-09-05T13:04:18.588Z,42.20
2018-09-05T13:06:52.026Z,43.15
2018-09-05T13:09:25.443Z,42.88
2018-09-05T13:11:58.880Z,42.03
2018-09-05T13:14:32.275Z,43.15
2018-09-05T13:17:05.703Z,42.88
2018-09-05T13:19:41.159Z,42.65
2018-09-05T13:22:14.582Z,42.88
2018-09-05T13:24:47.974Z,42.53
2018-09-05T13:27:21.413Z,42.43
2018-09-05T13:29:54.834Z,42.10
2018-09-05T13:32:28.287Z,43.92
2018-09-05T13:35:05.231Z,42.33
2018-09-05T13:37:38.743Z,41.98
2018-09-05T13:40:13.175Z,40.65
2018-09-05T13:42:46.575Z,41.88
2018-09-05T13:45:19.966Z,42.08
2018-09-05T13:47:53.391Z,41.55
2018-09-05T13:50:27.234Z,40.85
2018-09-05T13:53:01.685Z,42.17
2018-09-05T13:55:35.091Z,41.45
2018-09-05T13:58:08.508Z,41.98
2018-09-05T14:00:42.045Z,42.05
2018-09-05T14:03:15.534Z,42.45
2018-09-05T14:05:50.996Z,42.43
2018-09-05T14:08:25.043Z,41.55
2018-09-05T14:10:59.605Z,40.35
2018-09-05T14:13:33.059Z,41.10
2018-09-05T14:16:06.650Z,41.18
2018-09-05T14:18:40.051Z,41.53
2018-09-05T14:21:13.483Z,40.28
2018-09-05T14:23:46.955Z,41.90
2018-09-05T14:26:20.349Z,41.00
2018-09-05T14:28:53.791Z,41.55
2018-09-05T14:31:27.215Z,40.43
2018-09-05T14:34:00.675Z,41.30
2018-09-05T14:36:36.228Z,40.78
2018-09-05T14:39:13.607Z,40.15
2018-09-05T14:41:47.036Z,42.27
2018-09-05T14:44:20.443Z,40.95
2018-09-05T14:46:53.847Z,41.00
2018-09-05T14:49:27.255Z,39.65
2018-09-05T14:52:00.663Z,40.25
2018-09-05T14:54:34.075Z,44.30
2018-09-05T14:57:07.519Z,40.55
2018-09-05T14:59:40.959Z,39.00
2018-09-05T15:02:14.347Z,39.63
2018-09-05T15:04:47.770Z,39.58
2018-09-05T15:07:21.216Z,39.23
2018-09-05T15:09:56.716Z,39.35
2018-09-05T15:12:30.115Z,39.45
2018-09-05T15:15:03.612Z,38.92
2018-09-05T15:17:37.008Z,37.95
2018-09-05T15:20:18.158Z,38.98
2018-09-05T15:22:51.556Z,38.70
2018-09-05T15:25:24.991Z,38.92
2018-09-05T15:27:58.389Z,40.03
2018-09-05T15:30:34.937Z,39.60
2018-09-05T15:33:08.971Z,39.65
2018-09-05T15:35:42.395Z,40.75
2018-09-05T15:38:15.843Z,41.48
2018-09-05T15:40:49.308Z,41.13
2018-09-05T15:43:23.271Z,40.52
2018-09-05T15:45:56.756Z,40.90
2018-09-05T15:48:30.220Z,40.25
2018-09-05T15:51:03.669Z,40.03
2018-09-05T15:53:37.072Z,40.48
2018-09-05T15:56:10.531Z,40.35
2018-09-05T15:58:47.334Z,40.08
2018-09-05T16:01:20.761Z,42.83
2018-09-05T16:03:54.198Z,39.83
2018-09-05T16:06:27.610Z,40.05
2018-09-05T16:09:01.204Z,39.60
2018-09-05T16:11:34.616Z,38.60
2018-09-05T16:14:12.488Z,39.50
2018-09-05T16:16:45.897Z,39.60
2018-09-05T16:19:19.305Z,38.42
2018-09-05T16:21:52.746Z,38.23
2018-09-05T16:24:26.149Z,38.10
2018-09-05T16:26:59.572Z,39.40
2018-09-05T16:29:32.985Z,38.58
2018-09-05T16:32:06.494Z,37.55
2018-09-05T16:34:39.929Z,37.93
2018-09-05T16:40:26.138Z,38.25
2018-09-05T16:43:33.514Z,38.73
2018-09-05T16:46:07.629Z,37.70
2018-09-05T16:48:41.068Z,38.08
2018-09-05T16:51:17.263Z,37.95
2018-09-05T16:54:02.119Z,38.75
2018-09-05T16:56:41.923Z,38.33
2018-09-05T16:59:15.339Z,38.65
2018-09-05T17:01:49.815Z,37.98
2018-09-05T17:04:24.319Z,38.33
2018-09-05T17:06:57.763Z,39.00
2018-09-05T17:09:31.166Z,39.42
2018-09-05T17:12:05.665Z,38.67
2018-09-05T17:14:39.096Z,39.85
2018-09-05T17:17:12.549Z,38.75
2018-09-05T17:19:45.942Z,39.13
2018-09-05T17:22:19.357Z,38.63
2018-09-05T17:24:52.802Z,38.50
2018-09-05T17:27:26.350Z,37.88
2018-09-05T17:29:59.764Z,38.55
2018-09-05T17:32:38.970Z,38.58
2018-09-05T17:35:12.417Z,40.15
2018-09-05T17:37:45.847Z,39.67
2018-09-05T17:40:19.328Z,39.83
2018-09-05T17:42:53.066Z,40.78
2018-09-05T17:45:26.487Z,39.92
2018-09-05T17:47:59.967Z,39.50
2018-09-05T17:50:33.360Z,39.08
2018-09-05T17:53:06.808Z,40.38
2018-09-05T17:55:40.213Z,38.83
2018-09-05T17:58:13.695Z,39.40
2018-09-05T18:00:47.128Z,39.58
2018-09-05T18:03:20.543Z,39.63
2018-09-05T18:05:53.939Z,38.83
2018-09-05T18:08:27.507Z,38.80
2018-09-05T18:11:00.896Z,39.05
2018-09-05T18:13:35.351Z,38.50
2018-09-05T18:16:08.785Z,38.70
2018-09-05T18:18:43.492Z,39.03
2018-09-05T18:21:16.886Z,39.60
2018-09-05T18:23:50.305Z,39.78
2018-09-05T18:26:23.772Z,39.70
2018-09-05T18:28:57.172Z,39.05
2018-09-05T18:31:31.666Z,38.83
2018-09-05T18:34:05.084Z,39.95
2018-09-05T18:36:38.497Z,38.88
2018-09-05T18:39:11.900Z,38.40
2018-09-05T18:41:45.368Z,38.88
2018-09-05T18:44:18.775Z,39.33
2018-09-05T18:46:52.254Z,39.33
2018-09-05T18:49:25.683Z,39.58
2018-09-05T18:51:59.283Z,39.18
2018-09-05T18:54:32.692Z,39.95
2018-09-05T18:57:06.100Z,40.43
2018-09-05T18:59:41.630Z,40.05
2018-09-05T19:02:15.114Z,38.92
2018-09-05T19:04:48.626Z,39.92
2018-09-05T19:07:22.082Z,39.63
2018-09-05T19:09:55.650Z,39.20
2018-09-05T19:12:29.038Z,38.53
2018-09-05T19:15:02.442Z,37.10
2018-09-05T19:17:35.842Z,36.80
2018-09-05T19:20:09.322Z,36.83
2018-09-05T19:22:42.716Z,36.95
2018-09-05T19:25:16.140Z,37.48
2018-09-05T19:27:49.735Z,36.70
2018-09-05T19:30:23.222Z,36.20
2018-09-05T19:32:56.614Z,36.35
2018-09-05T19:35:30.090Z,35.70
2018-09-05T19:38:03.510Z,36.42
2018-09-05T19:40:39.033Z,37.28
2018-09-05T19:43:12.434Z,35.95
2018-09-05T19:45:45.945Z,36.93
2018-09-05T19:48:19.415Z,36.75
2018-09-05T19:50:52.824Z,37.25
2018-09-05T19:53:26.349Z,39.10
2018-09-05T19:55:59.826Z,38.90
2018-09-05T19:58:33.303Z,38.35
2018-09-05T20:01:06.830Z,38.88
2018-09-05T20:03:40.479Z,38.78
2018-09-05T20:06:14.974Z,38.30
2018-09-05T20:08:48.435Z,36.98
2018-09-05T20:11:23.767Z,36.60
2018-09-05T20:13:57.243Z,37.33
2018-09-05T20:16:30.696Z,37.98
2018-09-05T20:19:04.154Z,37.28
2018-09-05T20:21:37.552Z,38.42
2018-09-05T20:24:10.960Z,37.58
2018-09-05T20:26:46.403Z,39.42
2018-09-05T20:29:19.798Z,39.23
2018-09-05T20:31:53.243Z,38.95
2018-09-05T20:34:27.718Z,38.45
2018-09-05T20:37:01.151Z,38.38
2018-09-05T20:39:34.653Z,38.40
2018-09-05T20:42:08.043Z,36.88
2018-09-05T20:44:41.447Z,36.65
2018-09-05T20:47:14.900Z,37.13
2018-09-05T20:49:48.372Z,36.88
2018-09-05T20:52:21.767Z,36.75
2018-09-05T20:54:55.211Z,36.65
2018-09-05T20:57:28.595Z,37.28
2018-09-05T21:00:02.080Z,37.70
2018-09-05T21:02:35.475Z,36.88
2018-09-05T21:05:08.923Z,37.58
2018-09-05T21:07:42.312Z,38.30
2018-09-05T21:10:15.723Z,37.75
2018-09-05T21:12:49.107Z,37.55
2018-09-05T21:15:22.510Z,38.75
2018-09-05T21:17:55.906Z,38.02
2018-09-05T21:20:29.314Z,38.25
2018-09-05T21:23:02.758Z,38.02
2018-09-05T21:25:36.167Z,38.95
2018-09-05T21:28:11.620Z,38.50
2018-09-05T21:30:45.026Z,38.28
2018-09-05T21:33:18.418Z,38.10
2018-09-05T21:35:51.855Z,37.88
2018-09-05T21:38:25.251Z,38.38
2018-09-05T21:40:58.664Z,39.35
2018-09-05T21:43:32.086Z,39.30
2018-09-05T21:46:05.708Z,38.80
2018-09-05T21:48:39.102Z,38.98
2018-09-05T21:51:12.542Z,39.53
2018-09-05T21:53:45.922Z,38.70
2018-09-05T21:56:19.326Z,38.48
2018-09-05T21:58:52.731Z,38.30
2018-09-05T22:01:26.143Z,38.25
2018-09-05T22:03:59.534Z,39.10
2018-09-05T22:06:32.930Z,38.38
2018-09-05T22:09:08.547Z,39.00
2018-09-05T22:11:42.062Z,38.35
2018-09-05T22:14:15.406Z,39.58
2018-09-05T22:16:48.810Z,38.70
2018-09-05T22:19:22.208Z,39.20
2018-09-05T22:21:55.610Z,38.38
2018-09-05T22:24:29.063Z,39.33
2018-09-05T22:27:02.471Z,39.38
2018-09-05T22:29:36.901Z,39.40
2018-09-05T22:32:10.302Z,38.35
2018-09-05T22:34:43.682Z,38.70
2018-09-05T22:37:17.123Z,38.20
2018-09-05T22:39:50.655Z,38.25
2018-09-05T22:42:24.058Z,39.45
2018-09-05T22:45:08.721Z,38.95
2018-09-05T22:47:57.472Z,39.38
2018-09-05T22:51:04.687Z,39.23
2018-09-05T22:56:32.189Z,38.53
2018-09-05T22:59:24.576Z,37.55
2018-09-05T23:02:13.683Z,37.80
2018-09-05T23:05:09.125Z,38.45
2018-09-05T23:08:47.336Z,37.45
2018-09-05T23:11:58.800Z,37.05
2018-09-05T23:14:43.315Z,37.83
2018-09-05T23:17:27.830Z,37.70
2018-09-05T23:22:11.869Z,37.75
2018-09-05T23:24:45.303Z,36.55
2018-09-05T23:27:19.839Z,36.40
2018-09-05T23:29:53.267Z,36.35
2018-09-05T23:32:26.667Z,35.68
2018-09-05T23:35:00.108Z,36.03
2018-09-05T23:37:33.528Z,36.83
2018-09-05T23:40:06.964Z,38.38
2018-09-05T23:42:40.379Z,38.45
2018-09-05T23:45:13.804Z,38.67
2018-09-05T23:47:47.192Z,38.95
2018-09-05T23:50:20.599Z,37.95
2018-09-05T23:52:54.005Z,37.93
2018-09-05T23:55:27.432Z,38.17
2018-09-05T23:58:00.828Z,38.05
